createdAt,value
2018-11-25T00:00:11.746Z,4.60
2018-11-25T00:02:40.080Z,4.27
2018-11-25T00:05:09.071Z,5.17
2018-11-25T00:07:37.384Z,5.10
2018-11-25T00:10:06.459Z,5.30
2018-11-25T00:12:34.942Z,3.87
2018-11-25T00:15:03.294Z,5.00
2018-11-25T00:17:31.664Z,5.63
2018-11-25T00:19:59.928Z,5.27
2018-11-25T00:22:29.076Z,6.03
2018-11-25T00:24:57.344Z,5.00
2018-11-25T00:27:25.760Z,4.03
2018-11-25T00:29:55.076Z,3.90
2018-11-25T00:32:23.366Z,4.87
2018-11-25T00:34:51.658Z,3.63
2018-11-25T00:37:19.983Z,4.63
2018-11-25T00:39:48.276Z,4.47
2018-11-25T00:42:16.575Z,4.30
2018-11-25T00:44:44.870Z,3.87
2018-11-25T00:47:13.188Z,4.20
2018-11-25T00:49:41.519Z,3.57
2018-11-25T00:52:09.795Z,4.07
2018-11-25T00:54:38.083Z,4.47
2018-11-25T00:57:06.695Z,5.33
2018-11-25T00:59:34.995Z,3.67
2018-11-25T01:02:03.323Z,4.10
2018-11-25T01:04:31.611Z,5.37
2018-11-25T01:06:59.935Z,4.37
2018-11-25T01:09:29.259Z,4.70
2018-11-25T01:11:57.560Z,5.00
2018-11-25T01:14:25.872Z,4.63
2018-11-25T01:16:54.195Z,3.70
2018-11-25T01:19:22.474Z,5.50
2018-11-25T01:21:50.755Z,4.70
2018-11-25T01:24:19.071Z,3.33
2018-11-25T01:26:47.388Z,3.50
2018-11-25T01:29:15.664Z,6.03
2018-11-25T01:31:43.955Z,3.90
2018-11-25T01:34:12.275Z,4.93
2018-11-25T01:36:40.559Z,4.30
2018-11-25T01:39:08.879Z,4.47
2018-11-25T01:41:37.168Z,3.47
2018-11-25T01:44:05.476Z,3.77
2018-11-25T01:46:33.766Z,4.63
2018-11-25T01:49:02.042Z,6.60
2018-11-25T01:51:30.345Z,4.50
2018-11-25T01:53:58.634Z,4.70
2018-11-25T01:56:26.954Z,4.77
2018-11-25T01:58:55.231Z,3.90
2018-11-25T02:01:23.560Z,3.70
2018-11-25T02:03:51.847Z,3.80
2018-11-25T02:06:20.135Z,4.13
2018-11-25T02:08:48.427Z,4.77
2018-11-25T02:11:16.735Z,5.20
2018-11-25T02:13:45.044Z,3.77
2018-11-25T02:16:13.317Z,3.90
2018-11-25T02:18:41.586Z,5.67
2018-11-25T02:21:09.884Z,4.37
2018-11-25T02:23:38.168Z,4.37
2018-11-25T02:26:06.497Z,4.97
2018-11-25T02:28:34.776Z,4.67
2018-11-25T02:31:03.084Z,4.50
2018-11-25T02:33:31.363Z,4.40
2018-11-25T02:35:59.663Z,4.13
2018-11-25T02:38:27.921Z,5.33
2018-11-25T02:40:56.221Z,4.00
2018-11-25T02:43:24.532Z,4.07
2018-11-25T02:45:52.793Z,3.93
2018-11-25T02:48:21.054Z,4.10
2018-11-25T02:50:49.356Z,5.00
2018-11-25T02:53:17.715Z,4.00
2018-11-25T02:55:46.023Z,3.63
2018-11-25T02:58:14.315Z,4.60
2018-11-25T03:00:42.623Z,4.03
2018-11-25T03:03:10.895Z,3.97
2018-11-25T03:05:39.211Z,3.67
2018-11-25T03:08:07.502Z,4.73
2018-11-25T03:10:35.807Z,4.40
2018-11-25T03:13:04.099Z,4.30
2018-11-25T03:15:33.395Z,4.37
2018-11-25T03:18:01.675Z,3.73
2018-11-25T03:20:29.955Z,3.87
2018-11-25T03:22:58.238Z,4.83
2018-11-25T03:25:26.549Z,3.80
2018-11-25T03:27:54.830Z,4.17
2018-11-25T03:30:23.109Z,3.73
2018-11-25T03:32:52.456Z,4.07
2018-11-25T03:35:20.766Z,4.73
2018-11-25T03:37:49.077Z,4.10
2018-11-25T03:40:18.264Z,4.33
2018-11-25T03:42:46.551Z,3.80
2018-11-25T03:45:16.821Z,4.07
2018-11-25T03:47:45.142Z,3.83
2018-11-25T03:50:14.227Z,4.47
2018-11-25T03:52:42.521Z,3.90
2018-11-25T03:55:12.711Z,4.10
2018-11-25T03:57:41.022Z,3.83
2018-11-25T04:00:26.077Z,4.07
2018-11-25T04:02:55.787Z,3.77
2018-11-25T04:05:24.087Z,3.93
2018-11-25T04:07:52.388Z,4.23
2018-11-25T04:10:20.673Z,5.30
2018-11-25T04:12:48.991Z,4.30
2018-11-25T04:15:18.180Z,4.13
2018-11-25T04:17:46.935Z,4.47
2018-11-25T04:20:18.995Z,4.30
2018-11-25T04:22:47.353Z,4.00
2018-11-25T04:25:15.642Z,4.77
2018-11-25T04:27:43.938Z,4.17
2018-11-25T04:30:14.115Z,3.93
2018-11-25T04:32:42.711Z,4.43
2018-11-25T04:35:11.773Z,4.83
2018-11-25T04:37:40.052Z,4.87
2018-11-25T04:40:09.667Z,4.53
2018-11-25T04:42:37.965Z,4.20
2018-11-25T04:45:08.358Z,4.20
2018-11-25T04:47:37.794Z,3.60
2018-11-25T04:50:10.750Z,5.70
2018-11-25T04:52:41.113Z,4.00
2018-11-25T04:55:08.691Z,3.87
2018-11-25T04:57:36.992Z,3.97
2018-11-25T05:00:08.682Z,4.57
2018-11-25T05:02:38.308Z,4.50
2018-11-25T05:05:08.372Z,3.70
2018-11-25T05:07:36.629Z,3.77
2018-11-25T05:10:08.118Z,4.40
2018-11-25T05:12:36.395Z,4.60
2018-11-25T05:15:05.223Z,4.13
2018-11-25T05:17:33.494Z,5.40
2018-11-25T05:20:01.760Z,4.60
2018-11-25T05:22:30.018Z,4.90
2018-11-25T05:24:59.306Z,5.03
2018-11-25T05:27:27.596Z,3.53
2018-11-25T05:29:55.846Z,4.43
2018-11-25T05:32:24.135Z,4.30
2018-11-25T05:34:52.387Z,3.87
2018-11-25T05:37:21.690Z,4.17
2018-11-25T05:39:49.942Z,3.63
2018-11-25T05:42:18.202Z,5.57
2018-11-25T05:44:46.474Z,4.00
2018-11-25T05:47:14.763Z,3.90
2018-11-25T05:49:43.014Z,4.30
2018-11-25T05:52:11.307Z,4.80
2018-11-25T05:54:39.570Z,3.63
2018-11-25T05:57:07.855Z,4.40
2018-11-25T05:59:36.122Z,4.17
2018-11-25T06:02:04.627Z,4.80
2018-11-25T06:04:33.883Z,4.47
2018-11-25T06:07:03.183Z,3.83
2018-11-25T06:09:31.457Z,4.23
2018-11-25T06:11:59.732Z,3.87
2018-11-25T06:14:27.991Z,4.30
2018-11-25T06:16:56.283Z,4.23
2018-11-25T06:19:24.531Z,4.10
2018-11-25T06:21:52.814Z,4.57
2018-11-25T06:24:21.071Z,6.00
2018-11-25T06:26:49.375Z,4.97
2018-11-25T06:29:17.597Z,4.00
2018-11-25T06:31:45.867Z,4.73
2018-11-25T06:34:15.138Z,4.43
2018-11-25T06:36:43.418Z,4.90
2018-11-25T06:39:12.718Z,4.00
2018-11-25T06:41:41.399Z,3.80
2018-11-25T06:44:09.648Z,4.70
2018-11-25T06:46:37.918Z,4.40
2018-11-25T06:49:06.295Z,4.33
2018-11-25T06:51:34.579Z,5.20
2018-11-25T06:54:02.835Z,4.20
2018-11-25T06:56:31.112Z,5.20
2018-11-25T06:58:59.371Z,4.17
2018-11-25T07:01:27.638Z,5.23
2018-11-25T07:03:55.898Z,5.30
2018-11-25T07:06:24.186Z,4.70
2018-11-25T07:08:52.430Z,4.10
2018-11-25T07:11:20.713Z,4.20
2018-11-25T07:13:50.014Z,4.97
2018-11-25T07:16:18.311Z,4.43
2018-11-25T07:18:47.603Z,4.37
2018-11-25T07:21:16.899Z,5.70
2018-11-25T07:23:45.151Z,4.77
2018-11-25T07:26:13.431Z,4.93
2018-11-25T07:28:42.713Z,4.37
2018-11-25T07:31:10.982Z,4.47
2018-11-25T07:33:39.245Z,4.37
2018-11-25T07:36:07.497Z,4.07
2018-11-25T07:38:35.771Z,5.80
2018-11-25T07:41:04.044Z,4.73
2018-11-25T07:43:32.290Z,5.23
2018-11-25T07:46:02.499Z,4.37
2018-11-25T07:48:29.856Z,5.27
2018-11-25T07:50:58.143Z,5.37
2018-11-25T07:53:26.419Z,3.80
2018-11-25T07:55:54.661Z,4.87
2018-11-25T07:58:22.976Z,4.70
2018-11-25T08:00:51.239Z,4.43
2018-11-25T08:03:19.495Z,4.07
2018-11-25T08:05:47.788Z,4.13
2018-11-25T08:08:16.050Z,4.07
2018-11-25T08:10:44.303Z,4.63
2018-11-25T08:13:12.535Z,4.70
2018-11-25T08:15:41.811Z,5.03
2018-11-25T08:18:11.070Z,4.43
2018-11-25T08:20:38.325Z,4.60
2018-11-25T08:23:07.593Z,4.90
2018-11-25T08:25:35.870Z,5.30
2018-11-25T08:28:04.124Z,5.10
2018-11-25T08:30:32.396Z,4.20
2018-11-25T08:33:00.667Z,4.80
2018-11-25T08:35:28.943Z,4.47
2018-11-25T08:37:57.209Z,5.17
2018-11-25T08:40:25.650Z,6.20
2018-11-25T08:42:53.970Z,5.00
2018-11-25T08:45:22.270Z,5.30
2018-11-25T08:47:50.522Z,5.13
2018-11-25T08:50:19.676Z,4.70
2018-11-25T08:52:49.139Z,6.10
2018-11-25T08:55:20.260Z,5.33
2018-11-25T08:57:48.448Z,4.47
2018-11-25T09:00:17.532Z,4.80
2018-11-25T09:02:45.826Z,4.60
2018-11-25T09:05:14.853Z,4.73
2018-11-25T09:07:43.153Z,4.80
2018-11-25T09:10:14.465Z,4.67
2018-11-25T09:12:43.114Z,6.67
2018-11-25T09:15:15.372Z,5.90
2018-11-25T09:17:43.663Z,4.63
2018-11-25T09:20:13.183Z,4.97
2018-11-25T09:22:42.563Z,5.20
2018-11-25T09:25:15.093Z,6.30
2018-11-25T09:27:43.366Z,5.40
2018-11-25T09:30:13.259Z,5.83
2018-11-25T09:32:41.562Z,5.27
2018-11-25T09:35:09.842Z,5.30
2018-11-25T09:37:38.135Z,5.80
2018-11-25T09:40:10.525Z,5.57
2018-11-25T09:42:38.760Z,5.27
2018-11-25T09:45:11.268Z,4.90
2018-11-25T09:47:39.489Z,5.90
2018-11-25T09:50:10.074Z,6.00
2018-11-25T09:52:39.382Z,6.93
2018-11-25T09:55:10.913Z,7.07
2018-11-25T09:57:39.216Z,5.40
2018-11-25T10:00:15.761Z,5.10
2018-11-25T10:02:43.968Z,5.20
2018-11-25T10:05:13.312Z,5.73
2018-11-25T10:07:41.575Z,7.37
2018-11-25T10:10:14.242Z,7.57
2018-11-25T10:12:42.531Z,4.90
2018-11-25T10:15:12.655Z,5.10
2018-11-25T10:17:40.927Z,5.17
2018-11-25T10:20:17.257Z,6.23
2018-11-25T10:22:46.537Z,5.83
2018-11-25T10:25:16.586Z,5.33
2018-11-25T10:27:44.901Z,12.63
2018-11-25T10:30:18.242Z,5.40
2018-11-25T10:32:47.611Z,5.70
2018-11-25T10:35:15.904Z,6.30
2018-11-25T10:37:44.174Z,4.83
2018-11-25T10:40:16.295Z,6.57
2018-11-25T10:42:44.542Z,5.17
2018-11-25T10:45:18.044Z,9.13
2018-11-25T10:47:46.338Z,7.07
2018-11-25T10:50:17.482Z,5.10
2018-11-25T10:52:45.780Z,5.17
2018-11-25T10:55:15.337Z,5.93
2018-11-25T10:57:44.610Z,4.90
2018-11-25T11:00:22.431Z,6.27
2018-11-25T11:02:56.130Z,5.33
2018-11-25T11:05:29.988Z,5.47
2018-11-25T11:07:58.295Z,5.27
2018-11-25T11:10:26.579Z,5.77
2018-11-25T11:12:54.881Z,5.93
2018-11-25T11:15:24.179Z,5.63
2018-11-25T11:17:52.435Z,6.70
2018-11-25T11:20:20.747Z,5.13
2018-11-25T11:22:49.008Z,4.67
2018-11-25T11:25:17.271Z,5.57
2018-11-25T11:27:45.511Z,5.30
2018-11-25T11:30:13.814Z,4.60
2018-11-25T11:32:43.509Z,5.23
2018-11-25T11:35:11.791Z,5.10
2018-11-25T11:37:40.090Z,4.60
2018-11-25T11:40:10.185Z,4.83
2018-11-25T11:42:38.203Z,4.80
2018-11-25T11:45:10.875Z,5.00
2018-11-25T11:47:39.091Z,5.50
2018-11-25T11:50:15.346Z,4.10
2018-11-25T11:52:43.625Z,4.40
2018-11-25T11:55:12.983Z,4.50
2018-11-25T11:57:41.739Z,5.40
2018-11-25T12:00:18.711Z,5.83
2018-11-25T12:02:46.996Z,4.07
2018-11-25T12:05:15.267Z,4.83
2018-11-25T12:07:44.597Z,4.40
2018-11-25T12:10:13.987Z,4.30
2018-11-25T12:12:42.257Z,5.00
2018-11-25T12:15:15.327Z,5.07
2018-11-25T12:17:43.641Z,5.63
2018-11-25T12:20:12.190Z,4.90
2018-11-25T12:22:41.126Z,3.90
2018-11-25T12:25:14.497Z,6.50
2018-11-25T12:27:43.813Z,6.33
2018-11-25T12:30:14.025Z,4.00
2018-11-25T12:32:43.766Z,4.60
2018-11-25T12:35:13.848Z,4.40
2018-11-25T12:37:44.004Z,5.07
2018-11-25T12:40:14.523Z,4.20
2018-11-25T12:42:46.904Z,4.60
2018-11-25T12:45:17.944Z,4.17
2018-11-25T12:47:48.064Z,4.07
2018-11-25T12:50:18.239Z,5.83
2018-11-25T12:52:48.381Z,5.97
2018-11-25T12:55:18.733Z,4.50
2018-11-25T12:57:47.773Z,7.83
2018-11-25T13:00:30.280Z,3.77
2018-11-25T13:02:59.879Z,4.20
2018-11-25T13:05:28.884Z,3.80
2018-11-25T13:07:57.755Z,4.70
2018-11-25T13:10:26.820Z,3.93
2018-11-25T13:12:56.722Z,3.73
2018-11-25T13:15:25.075Z,3.80
2018-11-25T13:17:53.351Z,4.40
2018-11-25T13:20:21.637Z,4.50
2018-11-25T13:22:49.922Z,3.57
2018-11-25T13:25:18.453Z,4.90
2018-11-25T13:27:46.763Z,3.33
2018-11-25T13:30:20.415Z,4.97
2018-11-25T13:32:49.436Z,3.97
2018-11-25T13:35:17.728Z,3.60
2018-11-25T13:37:46.046Z,3.60
2018-11-25T13:40:15.440Z,4.67
2018-11-25T13:42:44.598Z,4.13
2018-11-25T13:45:14.492Z,5.33
2018-11-25T13:47:44.541Z,6.20
2018-11-25T13:50:13.564Z,3.53
2018-11-25T13:52:42.529Z,5.73
2018-11-25T13:55:14.738Z,7.43
2018-11-25T13:57:43.818Z,8.13
2018-11-25T14:00:22.113Z,5.33
2018-11-25T14:02:50.415Z,4.43
2018-11-25T14:05:18.695Z,6.67
2018-11-25T14:07:46.982Z,6.30
2018-11-25T14:10:27.396Z,3.67
2018-11-25T14:12:55.701Z,4.30
2018-11-25T14:15:23.983Z,5.97
2018-11-25T14:17:52.296Z,4.93
2018-11-25T14:20:20.575Z,4.03
2018-11-25T14:22:48.858Z,5.63
2018-11-25T14:25:18.509Z,7.90
2018-11-25T14:27:48.401Z,8.00
2018-11-25T14:30:20.354Z,5.13
2018-11-25T14:32:48.647Z,28.13
2018-11-25T14:35:17.574Z,37.17
2018-11-25T14:37:45.985Z,47.50
2018-11-25T14:40:15.643Z,50.33
2018-11-25T14:42:43.964Z,44.57
2018-11-25T14:45:13.517Z,59.87
2018-11-25T14:47:42.862Z,66.67
2018-11-25T14:50:12.397Z,85.40
2018-11-25T14:52:41.402Z,69.43
2018-11-25T14:55:10.987Z,72.83
2018-11-25T14:57:39.890Z,51.93
2018-11-25T15:00:11.042Z,63.73
2018-11-25T15:02:39.350Z,52.57
2018-11-25T15:05:13.545Z,63.10
2018-11-25T15:07:41.878Z,66.33
2018-11-25T15:10:10.798Z,48.53
2018-11-25T15:12:38.492Z,67.50
2018-11-25T15:15:10.406Z,69.07
2018-11-25T15:17:38.699Z,47.77
2018-11-25T15:20:09.358Z,54.80
2018-11-25T15:22:38.007Z,41.43
2018-11-25T15:25:08.826Z,62.30
2018-11-25T15:27:37.115Z,60.57
2018-11-25T15:30:08.588Z,50.73
2018-11-25T15:32:36.852Z,44.73
2018-11-25T15:35:08.587Z,51.63
2018-11-25T15:37:38.039Z,37.30
2018-11-25T15:40:12.008Z,46.80
2018-11-25T15:42:40.327Z,43.33
2018-11-25T15:45:09.989Z,40.40
2018-11-25T15:47:38.885Z,36.83
2018-11-25T15:50:10.210Z,34.83
2018-11-25T15:52:38.515Z,33.63
2018-11-25T15:55:09.640Z,35.47
2018-11-25T15:57:37.936Z,28.50
2018-11-25T16:00:11.341Z,28.77
2018-11-25T16:02:39.731Z,29.83
2018-11-25T16:05:10.517Z,30.10
2018-11-25T16:07:38.803Z,29.77
2018-11-25T16:10:10.590Z,24.63
2018-11-25T16:12:39.132Z,24.83
2018-11-25T16:15:09.338Z,30.67
2018-11-25T16:17:37.718Z,18.90
2018-11-25T16:20:08.848Z,23.83
2018-11-25T16:22:37.174Z,24.27
2018-11-25T16:25:09.407Z,21.43
2018-11-25T16:27:37.718Z,24.00
2018-11-25T16:30:08.309Z,25.17
2018-11-25T16:32:36.586Z,19.47
2018-11-25T16:35:07.534Z,28.03
2018-11-25T16:37:35.819Z,24.97
2018-11-25T16:40:06.015Z,24.63
2018-11-25T16:42:35.349Z,18.17
2018-11-25T16:45:03.639Z,15.03
2018-11-25T16:47:31.931Z,12.23
2018-11-25T16:50:00.213Z,16.60
2018-11-25T16:52:28.508Z,14.70
2018-11-25T16:54:56.793Z,18.37
2018-11-25T16:57:26.126Z,24.20
2018-11-25T16:59:54.430Z,17.30
2018-11-25T17:02:22.738Z,12.60
2018-11-25T17:04:51.007Z,15.97
2018-11-25T17:07:19.274Z,11.87
2018-11-25T17:09:47.526Z,15.13
2018-11-25T17:12:15.826Z,17.33
2018-11-25T17:14:44.079Z,16.57
2018-11-25T17:17:13.385Z,13.17
2018-11-25T17:19:41.696Z,13.47
2018-11-25T17:22:09.966Z,9.13
2018-11-25T17:24:39.235Z,11.90
2018-11-25T17:27:07.522Z,16.30
2018-11-25T17:29:35.783Z,15.70
2018-11-25T17:32:04.091Z,13.60
2018-11-25T17:34:32.349Z,11.03
2018-11-25T17:37:01.651Z,10.20
2018-11-25T17:39:29.923Z,13.90
2018-11-25T17:41:58.220Z,9.17
2018-11-25T17:44:26.486Z,11.37
2018-11-25T17:46:54.779Z,10.50
2018-11-25T17:49:23.025Z,17.07
2018-11-25T17:51:51.280Z,14.70
2018-11-25T17:54:19.509Z,8.90
2018-11-25T17:56:47.815Z,14.70
2018-11-25T17:59:16.104Z,14.67
2018-11-25T18:01:45.378Z,9.13
2018-11-25T18:04:13.650Z,10.37
2018-11-25T18:06:41.920Z,12.10
2018-11-25T18:09:11.004Z,10.30
2018-11-25T18:11:39.289Z,8.37
2018-11-25T18:14:08.450Z,11.87
2018-11-25T18:16:37.762Z,7.93
2018-11-25T18:19:24.711Z,9.10
2018-11-25T18:21:59.115Z,6.53
2018-11-25T18:24:27.371Z,6.57
2018-11-25T18:26:55.666Z,9.87
2018-11-25T18:29:23.951Z,11.07
2018-11-25T18:31:52.239Z,8.30
2018-11-25T18:34:20.514Z,10.87
2018-11-25T18:36:48.810Z,7.10
2018-11-25T18:39:17.066Z,9.53
2018-11-25T18:41:45.363Z,7.50
2018-11-25T18:44:13.647Z,12.30
2018-11-25T18:46:46.908Z,9.83
2018-11-25T18:49:10.918Z,9.13
2018-11-25T18:51:39.215Z,9.47
2018-11-25T18:54:08.315Z,8.87
2018-11-25T18:56:36.592Z,9.80
2018-11-25T18:59:04.909Z,6.93
2018-11-25T19:01:41.038Z,6.07
2018-11-25T19:04:09.270Z,8.53
2018-11-25T19:06:37.545Z,7.37
2018-11-25T19:09:08.485Z,9.97
2018-11-25T19:11:37.190Z,7.40
2018-11-25T19:14:05.503Z,7.13
2018-11-25T19:16:33.761Z,6.27
2018-11-25T19:19:01.998Z,7.70
2018-11-25T19:21:30.279Z,4.77
2018-11-25T19:23:58.546Z,7.70
2018-11-25T19:26:26.895Z,5.90
2018-11-25T19:28:55.100Z,6.50
2018-11-25T19:31:23.393Z,6.90
2018-11-25T19:33:51.656Z,6.27
2018-11-25T19:36:20.000Z,8.40
2018-11-25T19:38:48.195Z,5.87
2018-11-25T19:41:16.475Z,4.87
2018-11-25T19:43:44.751Z,7.17
2018-11-25T19:46:13.026Z,5.03
2018-11-25T19:48:42.342Z,6.50
2018-11-25T19:51:17.275Z,6.73
2018-11-25T19:53:38.882Z,4.73
2018-11-25T19:56:07.155Z,6.13
2018-11-25T19:58:35.403Z,5.30
2018-11-25T20:01:03.707Z,6.30
2018-11-25T20:03:33.019Z,5.73
2018-11-25T20:06:01.304Z,4.37
2018-11-25T20:08:30.587Z,8.57
2018-11-25T20:10:58.872Z,8.40
2018-11-25T20:13:27.143Z,6.00
2018-11-25T20:15:59.670Z,5.53
2018-11-25T20:18:27.927Z,5.13
2018-11-25T20:21:01.704Z,6.07
2018-11-25T20:23:31.056Z,6.00
2018-11-25T20:25:59.335Z,6.17
2018-11-25T20:28:27.600Z,4.30
2018-11-25T20:30:55.884Z,6.60
2018-11-25T20:33:29.448Z,5.33
2018-11-25T20:35:57.734Z,6.97
2018-11-25T20:38:31.502Z,5.63
2018-11-25T20:40:59.795Z,5.50
2018-11-25T20:43:28.087Z,7.00
2018-11-25T20:46:01.698Z,5.23
2018-11-25T20:48:29.966Z,4.10
2018-11-25T20:50:58.278Z,5.10
2018-11-25T20:53:33.048Z,3.97
2018-11-25T20:56:01.331Z,6.90
2018-11-25T20:58:29.621Z,4.67
2018-11-25T21:00:57.915Z,4.07
2018-11-25T21:03:26.182Z,4.07
2018-11-25T21:05:54.471Z,4.10
2018-11-25T21:08:22.751Z,5.30
2018-11-25T21:10:51.041Z,6.43
2018-11-25T21:13:19.294Z,3.83
2018-11-25T21:15:47.550Z,4.10
2018-11-25T21:18:15.826Z,3.83
2018-11-25T21:20:51.128Z,4.40
2018-11-25T21:23:13.338Z,5.93
2018-11-25T21:25:41.640Z,6.27
2018-11-25T21:28:09.930Z,3.67
2018-11-25T21:30:38.207Z,4.10
2018-11-25T21:33:06.772Z,4.00
2018-11-25T21:35:35.023Z,4.20
2018-11-25T21:38:03.335Z,3.63
2018-11-25T21:40:31.622Z,4.93
2018-11-25T21:42:59.887Z,4.97
2018-11-25T21:45:28.198Z,5.20
2018-11-25T21:47:56.746Z,4.33
2018-11-25T21:50:27.864Z,4.70
2018-11-25T21:52:56.128Z,6.93
2018-11-25T21:55:24.911Z,5.23
2018-11-25T21:57:53.249Z,4.00
2018-11-25T22:00:24.545Z,4.87
2018-11-25T22:02:52.823Z,6.17
2018-11-25T22:05:24.840Z,3.90
2018-11-25T22:07:50.470Z,3.57
2018-11-25T22:10:20.616Z,5.30
2018-11-25T22:12:49.204Z,4.33
2018-11-25T22:15:18.586Z,5.17
2018-11-25T22:17:46.885Z,5.03
2018-11-25T22:20:15.661Z,5.00
2018-11-25T22:22:43.983Z,4.57
2018-11-25T22:25:15.122Z,4.00
2018-11-25T22:27:43.447Z,6.43
2018-11-25T22:30:13.766Z,3.47
2018-11-25T22:32:42.064Z,3.57
2018-11-25T22:35:12.566Z,5.17
2018-11-25T22:37:42.178Z,5.23
2018-11-25T22:40:11.243Z,3.43
2018-11-25T22:42:40.258Z,6.33
2018-11-25T22:45:17.071Z,5.70
2018-11-25T22:47:45.342Z,9.10
2018-11-25T22:50:15.181Z,5.73
2018-11-25T22:52:43.623Z,3.90
2018-11-25T22:55:27.142Z,3.30
2018-11-25T22:57:55.433Z,3.63
2018-11-25T23:00:27.095Z,3.70
2018-11-25T23:02:55.371Z,9.90
2018-11-25T23:05:36.743Z,5.20
2018-11-25T23:08:06.043Z,3.80
2018-11-25T23:10:34.386Z,4.13
2018-11-25T23:13:02.677Z,3.37
2018-11-25T23:15:30.970Z,4.60
2018-11-25T23:17:59.245Z,5.03
2018-11-25T23:20:27.488Z,6.47
2018-11-25T23:22:55.738Z,5.37
2018-11-25T23:25:24.034Z,6.30
2018-11-25T23:27:52.302Z,3.70
2018-11-25T23:30:22.690Z,3.47
2018-11-25T23:32:51.478Z,6.40
2018-11-25T23:35:25.099Z,4.97
2018-11-25T23:37:54.203Z,5.80
2018-11-25T23:40:22.553Z,6.23
2018-11-25T23:42:51.531Z,5.33
2018-11-25T23:45:21.123Z,8.10
2018-11-25T23:47:50.170Z,5.60
2018-11-25T23:50:19.062Z,4.40
2018-11-25T23:52:49.007Z,3.93
2018-11-25T23:55:18.094Z,3.70
2018-11-25T23:57:48.226Z,4.43
